createdAt,value
2022-08-25T00:08:07.641Z,3.65
2022-08-25T00:18:19.902Z,4.57
2022-08-25T00:28:23.326Z,3.55
2022-08-25T00:38:28.236Z,3.72
2022-08-25T00:48:31.468Z,3.30
2022-08-25T00:58:37.265Z,3.80
2022-08-25T01:08:40.445Z,3.72
2022-08-25T01:18:48.087Z,3.67
2022-08-25T01:29:10.089Z,3.50
2022-08-25T01:39:14.979Z,3.05
2022-08-25T01:49:19.629Z,3.22
2022-08-25T01:59:24.355Z,3.45
2022-08-25T02:09:29.331Z,3.15
2022-08-25T02:19:32.628Z,3.37
2022-08-25T02:29:37.369Z,3.58
2022-08-25T02:39:40.531Z,3.85
2022-08-25T02:49:45.751Z,3.15
2022-08-25T02:59:49.083Z,3.03
2022-08-25T03:09:53.777Z,3.72
2022-08-25T03:19:57.066Z,4.40
2022-08-25T03:30:03.363Z,3.85
2022-08-25T03:40:15.280Z,3.80
2022-08-25T03:50:22.684Z,4.55
2022-08-25T04:00:25.851Z,4.35
2022-08-25T04:10:31.190Z,4.60
2022-08-25T04:20:34.537Z,3.80
2022-08-25T04:30:43.053Z,4.57
2022-08-25T04:40:46.191Z,4.07
2022-08-25T04:50:51.367Z,4.00
2022-08-25T05:00:54.852Z,4.03
2022-08-25T05:10:59.977Z,4.30
2022-08-25T05:21:08.208Z,6.15
2022-08-25T05:31:15.101Z,4.80
2022-08-25T05:41:21.670Z,5.53
2022-08-25T05:51:27.599Z,4.85
2022-08-25T06:01:49.003Z,4.30
2022-08-25T06:11:55.236Z,5.37
2022-08-25T06:21:59.405Z,4.85
2022-08-25T06:32:04.506Z,4.00
2022-08-25T06:42:07.939Z,3.60
2022-08-25T06:52:12.966Z,3.50
2022-08-25T07:02:16.199Z,3.47
2022-08-25T07:12:26.883Z,2.97
2022-08-25T07:22:30.052Z,3.33
2022-08-25T07:32:34.642Z,3.33
2022-08-25T07:42:37.889Z,3.35
2022-08-25T07:52:42.940Z,3.22
2022-08-25T08:02:46.122Z,3.00
2022-08-25T08:12:51.015Z,3.20
2022-08-25T08:22:54.660Z,3.42
2022-08-25T08:33:09.797Z,2.70
2022-08-25T08:43:18.919Z,2.50
2022-08-25T08:53:28.710Z,2.72
2022-08-25T09:03:40.006Z,2.67
2022-08-25T09:13:56.759Z,2.50
2022-08-25T09:24:12.885Z,2.22
2022-08-25T09:34:22.152Z,2.42
2022-08-25T09:44:26.686Z,2.00
2022-08-25T09:54:44.143Z,2.20
2022-08-25T10:04:50.267Z,2.35
2022-08-25T10:14:55.360Z,2.10
2022-08-25T10:25:00.655Z,1.80
2022-08-25T10:35:14.552Z,1.80
2022-08-25T10:45:40.242Z,1.62
2022-08-25T10:55:53.497Z,2.20
2022-08-25T11:06:00.095Z,2.17
2022-08-25T11:16:17.367Z,2.20
2022-08-25T11:26:31.924Z,2.00
2022-08-25T11:36:40.631Z,2.10
2022-08-25T11:46:52.868Z,2.30
2022-08-25T11:57:01.460Z,2.05
2022-08-25T12:07:25.189Z,2.28
2022-08-25T12:17:39.673Z,2.40
2022-08-25T12:27:46.919Z,2.47
2022-08-25T12:38:04.835Z,2.12
2022-08-25T12:48:41.687Z,3.35
2022-08-25T12:59:00.229Z,2.40
2022-08-25T13:09:53.759Z,2.20
2022-08-25T13:20:13.945Z,2.03
2022-08-25T13:30:25.257Z,2.45
2022-08-25T13:40:33.811Z,2.67
2022-08-25T14:00:47.274Z,2.50
2022-08-25T14:10:50.689Z,2.60
2022-08-25T14:20:56.263Z,2.17
2022-08-25T14:31:01.976Z,2.33
2022-08-25T14:51:13.981Z,2.22
2022-08-25T15:01:28.785Z,2.37
2022-08-25T15:11:33.706Z,2.58
2022-08-25T15:21:39.896Z,2.00
2022-08-25T15:31:44.181Z,2.33
2022-08-25T15:41:52.276Z,2.03
2022-08-25T15:51:56.290Z,2.50
2022-08-25T16:02:02.240Z,2.40
2022-08-25T16:12:08.642Z,2.65
2022-08-25T16:22:13.599Z,2.60
2022-08-25T16:32:16.804Z,2.55
2022-08-25T16:42:21.533Z,2.15
2022-08-25T16:52:44.207Z,2.70
2022-08-25T17:02:49.307Z,2.25
2022-08-25T17:12:53.187Z,2.30
2022-08-25T17:22:58.058Z,2.20
2022-08-25T17:33:01.593Z,3.15
2022-08-25T17:43:09.031Z,3.33
2022-08-25T17:53:13.847Z,3.03
2022-08-25T18:03:21.038Z,3.25
2022-08-25T18:13:24.198Z,2.92
2022-08-25T18:23:29.594Z,2.83
2022-08-25T18:33:32.900Z,3.50
2022-08-25T18:43:37.649Z,3.28
2022-08-25T18:53:50.111Z,3.35
2022-08-25T19:03:55.180Z,3.08
2022-08-25T19:13:59.685Z,3.85
2022-08-25T19:24:05.099Z,3.40
2022-08-25T19:34:09.863Z,3.50
2022-08-25T19:44:14.729Z,4.00
2022-08-25T19:54:21.290Z,4.53
2022-08-25T20:04:25.910Z,3.58
2022-08-25T20:14:29.082Z,3.50
2022-08-25T20:24:56.090Z,3.72
2022-08-25T20:35:01.809Z,3.55
2022-08-25T20:45:07.963Z,4.05
2022-08-25T20:55:11.889Z,3.40
2022-08-25T21:05:17.396Z,3.42
2022-08-25T21:15:21.054Z,3.80
2022-08-25T21:25:25.642Z,4.85
2022-08-25T21:35:28.805Z,4.32
2022-08-25T21:45:42.150Z,4.22
2022-08-25T21:55:50.439Z,4.45
2022-08-25T22:05:55.061Z,3.95
2022-08-25T22:15:58.790Z,4.90
2022-08-25T22:26:03.448Z,3.75
2022-08-25T22:36:15.620Z,4.55
2022-08-25T22:46:22.460Z,4.47
2022-08-25T22:56:30.832Z,3.97
2022-08-25T23:06:35.548Z,4.70
2022-08-25T23:16:39.423Z,4.72
2022-08-25T23:26:48.603Z,4.07
2022-08-25T23:36:55.814Z,3.80
2022-08-25T23:47:00.394Z,3.40
2022-08-25T23:57:03.813Z,4.90
